Time,TemperatureF,DewpointF,PressureIn,WindDirection,WindDirectionDegrees,WindSpeedMPH,WindSpeedGustMPH,Humidity,HourlyPrecipIn,Conditions,Clouds,dailyrainin,SoftwareType,DateUTC
2013-08-04 00:01:00,72.7,71.8,30.05,SW,226,0.0,0.0,97,0.00,,,0.00,Wunderground v.1.15,2013-08-04 05:01:00,
2013-08-04 00:07:00,72.7,71.8,30.05,SW,226,0.0,0.0,97,0.00,,,0.00,Wunderground v.1.15,2013-08-04 05:07:00,
2013-08-04 00:13:00,73.0,72.4,30.05,West,264,1.0,2.0,98,0.00,,,0.00,Wunderground v.1.15,2013-08-04 05:13:00,
2013-08-04 00:18:00,73.2,72.3,30.06,West,268,0.0,2.0,97,0.00,,,0.00,Wunderground v.1.15,2013-08-04 05:18:00,
2013-08-04 00:25:00,73.5,72.3,30.05,West,267,0.0,1.0,96,0.00,,,0.00,Wunderground v.1.15,2013-08-04 05:25:00,
2013-08-04 00:31:00,73.7,72.2,30.06,West,270,0.0,0.0,95,0.00,,,0.00,Wunderground v.1.15,2013-08-04 05:31:00,
2013-08-04 00:36:00,73.6,72.1,30.06,West,263,0.0,0.0,95,0.00,,,0.00,Wunderground v.1.15,2013-08-04 05:36:00,
2013-08-04 00:41:00,73.5,72.0,30.06,West,277,0.0,2.0,95,0.00,,,0.00,Wunderground v.1.15,2013-08-04 05:41:00,
2013-08-04 00:47:00,73.8,72.0,30.06,West,276,1.0,2.0,94,0.00,,,0.00,Wunderground v.1.15,2013-08-04 05:47:00,
2013-08-04 00:53:00,73.9,72.1,30.06,West,280,0.0,1.0,94,0.00,,,0.00,Wunderground v.1.15,2013-08-04 05:53:00,
2013-08-04 00:58:00,74.1,72.3,30.06,West,274,0.0,1.0,94,0.00,,,0.00,Wunderground v.1.15,2013-08-04 05:58:00,
2013-08-04 01:04:00,73.9,71.7,30.06,West,274,0.0,0.0,93,0.00,,,0.00,Wunderground v.1.15,2013-08-04 06:04:00,
2013-08-04 01:10:00,73.7,71.5,30.06,West,270,0.0,0.0,93,0.00,,,0.00,Wunderground v.1.15,2013-08-04 06:10:00,
2013-08-04 01:15:00,73.5,71.4,30.06,West,271,0.0,1.0,93,0.00,,,0.00,Wunderground v.1.15,2013-08-04 06:15:00,
2013-08-04 01:21:00,73.3,71.2,30.06,West,271,0.0,0.0,93,0.00,,,0.00,Wunderground v.1.15,2013-08-04 06:21:00,
2013-08-04 01:27:00,73.0,71.2,30.06,West,270,0.0,0.0,94,0.00,,,0.00,Wunderground v.1.15,2013-08-04 06:27:00,
2013-08-04 01:33:00,72.7,70.9,30.05,West,262,0.0,0.0,94,0.00,,,0.00,Wunderground v.1.15,2013-08-04 06:33:00,
2013-08-04 01:39:00,72.5,70.7,30.05,West,262,0.0,0.0,94,0.00,,,0.00,Wunderground v.1.15,2013-08-04 06:39:00,
2013-08-04 01:45:00,72.4,70.9,30.05,WSW,256,0.0,0.0,95,0.00,,,0.00,Wunderground v.1.15,2013-08-04 06:45:00,
2013-08-04 01:50:00,72.3,70.8,30.05,WSW,253,0.0,0.0,95,0.00,,,0.00,Wunderground v.1.15,2013-08-04 06:50:00,
2013-08-04 01:56:00,72.2,70.7,30.05,WSW,255,0.0,0.0,95,0.00,,,0.00,Wunderground v.1.15,2013-08-04 06:56:00,
2013-08-04 02:00:00,71.9,70.4,30.05,WSW,255,0.0,0.0,95,0.00,,,0.00,Wunderground v.1.15,2013-08-04 07:00:00,
2013-08-04 02:06:00,71.6,70.1,30.05,WSW,255,0.0,0.0,95,0.00,,,0.00,Wunderground v.1.15,2013-08-04 07:06:00,
2013-08-04 02:11:00,71.2,69.7,30.05,WSW,255,0.0,0.0,95,0.00,,,0.00,Wunderground v.1.15,2013-08-04 07:11:00,
2013-08-04 02:16:00,71.1,69.6,30.05,WSW,255,0.0,0.0,95,0.00,,,0.00,Wunderground v.1.15,2013-08-04 07:16:00,
2013-08-04 02:21:00,71.1,69.9,30.05,WSW,255,0.0,0.0,96,0.00,,,0.00,Wunderground v.1.15,2013-08-04 07:21:00,
2013-08-04 02:26:00,71.0,69.8,30.05,WSW,255,0.0,0.0,96,0.00,,,0.00,Wunderground v.1.15,2013-08-04 07:26:00,
2013-08-04 02:31:00,70.8,69.6,30.05,WSW,255,0.0,0.0,96,0.00,,,0.00,Wunderground v.1.15,2013-08-04 07:31:00,
2013-08-04 02:36:00,70.6,69.4,30.05,WSW,255,0.0,0.0,96,0.00,,,0.00,Wunderground v.1.15,2013-08-04 07:36:00,
2013-08-04 02:41:00,70.4,69.2,30.05,WSW,255,0.0,0.0,96,0.00,,,0.00,Wunderground v.1.15,2013-08-04 07:41:00,
2013-08-04 02:46:00,70.2,69.0,30.04,WSW,255,0.0,0.0,96,0.00,,,0.00,Wunderground v.1.15,2013-08-04 07:46:00,
2013-08-04 02:51:00,70.3,69.4,30.04,WSW,255,0.0,0.0,97,0.00,,,0.00,Wunderground v.1.15,2013-08-04 07:51:00,
2013-08-04 02:56:00,70.1,69.2,30.04,WSW,255,0.0,0.0,97,0.00,,,0.00,Wunderground v.1.15,2013-08-04 07:56:00,
2013-08-04 03:01:00,69.9,69.0,30.04,WSW,254,0.0,0.0,97,0.00,,,0.00,Wunderground v.1.15,2013-08-04 08:01:00,
2013-08-04 03:06:00,69.9,69.0,30.04,WSW,255,0.0,0.0,97,0.00,,,0.00,Wunderground v.1.15,2013-08-04 08:06:00,
2013-08-04 03:11:00,70.1,69.2,30.04,SW,228,0.0,1.0,97,0.00,,,0.00,Wunderground v.1.15,2013-08-04 08:11:00,
2013-08-04 03:16:00,70.1,69.2,30.04,SW,228,0.0,1.0,97,0.00,,,0.00,Wunderground v.1.15,2013-08-04 08:16:00,
2013-08-04 03:21:00,70.0,69.1,30.04,SW,229,0.0,0.0,97,0.00,,,0.00,Wunderground v.1.15,2013-08-04 08:21:00,
2013-08-04 03:27:00,69.7,68.8,30.04,SW,229,0.0,0.0,97,0.00,,,0.00,Wunderground v.1.15,2013-08-04 08:27:00,
2013-08-04 03:32:00,69.5,68.6,30.04,SW,229,0.0,0.0,97,0.00,,,0.00,Wunderground v.1.15,2013-08-04 08:32:00,
2013-08-04 03:37:00,69.6,68.7,30.04,SW,228,0.0,1.0,97,0.00,,,0.00,Wunderground v.1.15,2013-08-04 08:37:00,
2013-08-04 03:42:00,69.6,68.7,30.04,SW,229,0.0,0.0,97,0.00,,,0.00,Wunderground v.1.15,2013-08-04 08:42:00,
2013-08-04 03:47:00,69.6,68.7,30.04,SW,229,0.0,1.0,97,0.00,,,0.00,Wunderground v.1.15,2013-08-04 08:47:00,
2013-08-04 03:52:00,69.5,68.6,30.04,SW,229,0.0,0.0,97,0.00,,,0.00,Wunderground v.1.15,2013-08-04 08:52:00,
2013-08-04 03:57:00,69.3,68.4,30.04,SW,229,0.0,0.0,97,0.00,,,0.00,Wunderground v.1.15,2013-08-04 08:57:00,
2013-08-04 04:02:00,69.2,68.3,30.05,SW,229,0.0,0.0,97,0.00,,,0.00,Wunderground v.1.15,2013-08-04 09:02:00,
2013-08-04 04:07:00,69.0,68.1,30.04,SW,228,0.0,0.0,97,0.00,,,0.00,Wunderground v.1.15,2013-08-04 09:07:00,
2013-08-04 04:12:00,69.1,68.2,30.04,West,276,1.0,1.0,97,0.00,,,0.00,Wunderground v.1.15,2013-08-04 09:12:00,
2013-08-04 04:17:00,69.3,68.4,30.04,SSW,195,0.0,2.0,97,0.00,,,0.00,Wunderground v.1.15,2013-08-04 09:17:00,
2013-08-04 04:22:00,69.5,68.3,30.05,ENE,67,1.0,4.0,96,0.00,,,0.00,Wunderground v.1.15,2013-08-04 09:22:00,
2013-08-04 04:27:00,69.7,67.9,30.05,NE,51,1.0,4.0,94,0.00,,,0.00,Wunderground v.1.15,2013-08-04 09:27:00,
2013-08-04 04:32:00,69.9,67.8,30.05,ENE,60,1.0,3.0,93,0.00,,,0.00,Wunderground v.1.15,2013-08-04 09:32:00,
2013-08-04 04:37:00,69.9,67.5,30.06,NE,53,2.0,3.0,92,0.00,,,0.00,Wunderground v.1.15,2013-08-04 09:37:00,
2013-08-04 04:42:00,69.9,67.5,30.06,ENE,65,1.0,3.0,92,0.00,,,0.00,Wunderground v.1.15,2013-08-04 09:42:00,
2013-08-04 04:47:00,70.0,67.3,30.06,NE,56,3.0,3.0,91,0.00,,,0.00,Wunderground v.1.15,2013-08-04 09:47:00,
2013-08-04 04:52:00,70.1,67.3,30.06,NE,49,1.0,2.0,91,0.00,,,0.00,Wunderground v.1.15,2013-08-04 09:52:00,
2013-08-04 04:57:00,70.0,66.9,30.06,NE,49,2.0,3.0,90,0.00,,,0.00,Wunderground v.1.15,2013-08-04 09:57:00,
2013-08-04 05:02:00,70.0,66.9,30.07,NE,51,1.0,1.0,90,0.00,,,0.00,Wunderground v.1.15,2013-08-04 10:02:00,
2013-08-04 05:07:00,69.9,66.8,30.07,NE,51,1.0,2.0,90,0.00,,,0.00,Wunderground v.1.15,2013-08-04 10:07:00,
2013-08-04 05:12:00,69.9,66.8,30.07,NE,51,1.0,2.0,90,0.00,,,0.00,Wunderground v.1.15,2013-08-04 10:12:00,
2013-08-04 05:17:00,69.8,66.7,30.07,ENE,58,0.0,2.0,90,0.00,,,0.00,Wunderground v.1.15,2013-08-04 10:17:00,
2013-08-04 05:22:00,69.5,66.4,30.07,ENE,58,0.0,1.0,90,0.00,,,0.00,Wunderground v.1.15,2013-08-04 10:22:00,
2013-08-04 05:27:00,69.1,66.0,30.08,ENE,58,0.0,1.0,90,0.00,,,0.00,Wunderground v.1.15,2013-08-04 10:27:00,
2013-08-04 05:32:00,68.7,66.0,30.08,ENE,58,0.0,0.0,91,0.00,,,0.00,Wunderground v.1.15,2013-08-04 10:32:00,
2013-08-04 05:37:00,68.2,65.8,30.08,ENE,58,0.0,0.0,92,0.00,,,0.00,Wunderground v.1.15,2013-08-04 10:37:00,
2013-08-04 05:42:00,68.0,65.6,30.09,ENE,58,0.0,0.0,92,0.00,,,0.00,Wunderground v.1.15,2013-08-04 10:42:00,
2013-08-04 05:47:00,67.7,65.6,30.09,ENE,58,0.0,0.0,93,0.00,,,0.00,Wunderground v.1.15,2013-08-04 10:47:00,
2013-08-04 05:52:00,67.5,65.7,30.09,ENE,58,0.0,0.0,94,0.00,,,0.00,Wunderground v.1.15,2013-08-04 10:52:00,
2013-08-04 05:57:00,67.3,65.5,30.09,ENE,58,0.0,0.0,94,0.00,,,0.00,Wunderground v.1.15,2013-08-04 10:57:00,
2013-08-04 06:02:00,67.2,65.7,30.10,ENE,58,0.0,1.0,95,0.00,,,0.00,Wunderground v.1.15,2013-08-04 11:02:00,
2013-08-04 06:07:00,67.1,65.6,30.10,ENE,58,0.0,1.0,95,0.00,,,0.00,Wunderground v.1.15,2013-08-04 11:07:00,
2013-08-04 06:12:00,67.1,65.6,30.10,ENE,58,0.0,0.0,95,0.00,,,0.00,Wunderground v.1.15,2013-08-04 11:12:00,
2013-08-04 06:17:00,67.2,65.7,30.10,ENE,58,0.0,1.0,95,0.00,,,0.00,Wunderground v.1.15,2013-08-04 11:17:00,
2013-08-04 06:22:00,67.3,65.5,30.10,ENE,58,0.0,0.0,94,0.00,,,0.00,Wunderground v.1.15,2013-08-04 11:22:00,
2013-08-04 06:28:00,67.3,65.5,30.10,ENE,58,0.0,0.0,94,0.00,,,0.00,Wunderground v.1.15,2013-08-04 11:28:00,
2013-08-04 06:33:00,67.5,65.7,30.10,ENE,58,0.0,0.0,94,0.00,,,0.00,Wunderground v.1.15,2013-08-04 11:33:00,
2013-08-04 06:38:00,67.8,66.0,30.10,ENE,58,0.0,0.0,94,0.00,,,0.00,Wunderground v.1.15,2013-08-04 11:38:00,
2013-08-04 06:43:00,68.1,66.3,30.10,ENE,58,1.0,1.0,94,0.00,,,0.00,Wunderground v.1.15,2013-08-04 11:43:00,
2013-08-04 06:48:00,68.7,66.3,30.10,ENE,61,2.0,2.0,92,0.00,,,0.00,Wunderground v.1.15,2013-08-04 11:48:00,
2013-08-04 06:52:00,69.0,66.3,30.11,ENE,69,2.0,3.0,91,0.00,,,0.00,Wunderground v.1.15,2013-08-04 11:52:00,
2013-08-04 06:58:00,69.3,66.6,30.11,ENE,63,2.0,3.0,91,0.00,,,0.00,Wunderground v.1.15,2013-08-04 11:58:00,
2013-08-04 07:03:00,69.6,66.9,30.11,East,85,0.0,4.0,91,0.00,,,0.00,Wunderground v.1.15,2013-08-04 12:03:00,
2013-08-04 07:08:00,70.0,66.6,30.11,ENE,60,2.0,4.0,89,0.00,,,0.00,Wunderground v.1.15,2013-08-04 12:08:00,
2013-08-04 07:12:00,70.0,66.6,30.11,East,79,1.0,6.0,89,0.00,,,0.00,Wunderground v.1.15,2013-08-04 12:12:00,
2013-08-04 07:18:00,70.1,66.4,30.11,ENE,64,2.0,6.0,88,0.00,,,0.00,Wunderground v.1.15,2013-08-04 12:18:00,
2013-08-04 07:22:00,70.1,66.0,30.11,ESE,103,0.0,6.0,87,0.00,,,0.00,Wunderground v.1.15,2013-08-04 12:22:00,
2013-08-04 07:28:00,70.4,66.3,30.11,ENE,65,4.0,6.0,87,0.00,,,0.00,Wunderground v.1.15,2013-08-04 12:28:00,
2013-08-04 07:33:00,70.5,66.4,30.11,SSE,163,1.0,4.0,87,0.00,,,0.00,Wunderground v.1.15,2013-08-04 12:33:00,
2013-08-04 07:38:00,70.5,66.4,30.11,East,98,1.0,5.0,87,0.00,,,0.00,Wunderground v.1.15,2013-08-04 12:38:00,
2013-08-04 07:43:00,70.7,66.6,30.11,SE,143,0.0,3.0,87,0.00,,,0.00,Wunderground v.1.15,2013-08-04 12:43:00,
2013-08-04 07:48:00,71.0,66.6,30.11,ESE,117,2.0,5.0,86,0.00,,,0.00,Wunderground v.1.15,2013-08-04 12:48:00,
2013-08-04 07:53:00,71.2,66.8,30.11,NE,39,2.0,3.0,86,0.00,,,0.00,Wunderground v.1.15,2013-08-04 12:53:00,
2013-08-04 07:58:00,71.3,66.2,30.11,ESE,113,3.0,5.0,84,0.00,,,0.00,Wunderground v.1.15,2013-08-04 12:58:00,
2013-08-04 08:03:00,71.5,66.4,30.11,East,87,1.0,2.0,84,0.00,,,0.00,Wunderground v.1.15,2013-08-04 13:03:00,
2013-08-04 08:08:00,71.6,66.2,30.11,East,99,1.0,4.0,83,0.00,,,0.00,Wunderground v.1.15,2013-08-04 13:08:00,
2013-08-04 08:13:00,71.8,66.4,30.11,East,91,2.0,3.0,83,0.00,,,0.00,Wunderground v.1.15,2013-08-04 13:13:00,
2013-08-04 08:18:00,71.9,66.1,30.11,ENE,77,1.0,4.0,82,0.00,,,0.00,Wunderground v.1.15,2013-08-04 13:18:00,
2013-08-04 08:23:00,72.2,66.4,30.11,East,94,2.0,4.0,82,0.00,,,0.00,Wunderground v.1.15,2013-08-04 13:23:00,
2013-08-04 08:28:00,72.6,66.4,30.11,ENE,58,3.0,4.0,81,0.00,,,0.00,Wunderground v.1.15,2013-08-04 13:28:00,
2013-08-04 08:33:00,73.0,66.5,30.12,NNE,32,1.0,4.0,80,0.00,,,0.00,Wunderground v.1.15,2013-08-04 13:33:00,
2013-08-04 08:38:00,73.3,65.7,30.12,ESE,104,2.0,5.0,77,0.00,,,0.00,Wunderground v.1.15,2013-08-04 13:38:00,
2013-08-04 08:43:00,73.5,64.7,30.12,ESE,120,1.0,7.0,74,0.00,,,0.00,Wunderground v.1.15,2013-08-04 13:43:00,
2013-08-04 08:48:00,73.7,64.9,30.12,ESE,102,1.0,7.0,74,0.00,,,0.00,Wunderground v.1.15,2013-08-04 13:48:00,
2013-08-04 08:53:00,73.6,64.4,30.12,East,87,5.0,7.0,73,0.00,,,0.00,Wunderground v.1.15,2013-08-04 13:53:00,
2013-08-04 08:58:00,73.6,64.4,30.12,ESE,110,2.0,7.0,73,0.00,,,0.00,Wunderground v.1.15,2013-08-04 13:58:00,
2013-08-04 09:03:00,73.8,64.6,30.12,East,96,4.0,5.0,73,0.00,,,0.00,Wunderground v.1.15,2013-08-04 14:03:00,
2013-08-04 09:08:00,73.9,64.7,30.12,SE,132,1.0,5.0,73,0.00,,,0.00,Wunderground v.1.15,2013-08-04 14:08:00,
2013-08-04 09:13:00,74.0,65.2,30.12,NNE,21,0.0,6.0,74,0.00,,,0.00,Wunderground v.1.15,2013-08-04 14:13:00,
2013-08-04 09:18:00,74.4,64.8,30.12,ENE,65,2.0,6.0,72,0.00,,,0.00,Wunderground v.1.15,2013-08-04 14:18:00,
2013-08-04 09:23:00,75.2,64.7,30.12,East,94,3.0,4.0,70,0.00,,,0.00,Wunderground v.1.15,2013-08-04 14:23:00,
2013-08-04 09:28:00,74.9,63.2,30.13,East,87,5.0,8.0,67,0.00,,,0.00,Wunderground v.1.15,2013-08-04 14:28:00,
2013-08-04 09:33:00,75.2,63.9,30.13,SE,129,3.0,7.0,68,0.00,,,0.00,Wunderground v.1.15,2013-08-04 14:33:00,
2013-08-04 09:38:00,75.1,63.8,30.12,East,90,1.0,7.0,68,0.00,,,0.00,Wunderground v.1.15,2013-08-04 14:38:00,
2013-08-04 09:43:00,75.3,64.0,30.13,ENE,71,3.0,7.0,68,0.00,,,0.00,Wunderground v.1.15,2013-08-04 14:43:00,
2013-08-04 09:48:00,75.2,63.9,30.13,ENE,74,0.0,7.0,68,0.00,,,0.00,Wunderground v.1.15,2013-08-04 14:48:00,
2013-08-04 09:53:00,75.3,63.2,30.13,ENE,58,6.0,6.0,66,0.00,,,0.00,Wunderground v.1.15,2013-08-04 14:53:00,
2013-08-04 09:58:00,75.5,63.8,30.13,ENE,67,0.0,7.0,67,0.00,,,0.00,Wunderground v.1.15,2013-08-04 14:58:00,
2013-08-04 10:03:00,76.0,63.8,30.13,ESE,104,4.0,8.0,66,0.00,,,0.00,Wunderground v.1.15,2013-08-04 15:03:00,
2013-08-04 10:08:00,76.4,64.2,30.13,ESE,105,2.0,8.0,66,0.00,,,0.00,Wunderground v.1.15,2013-08-04 15:08:00,
2013-08-04 10:13:00,76.6,63.5,30.13,East,84,4.0,7.0,64,0.00,,,0.00,Wunderground v.1.15,2013-08-04 15:13:00,
2013-08-04 10:18:00,77.0,63.4,30.14,ENE,72,2.0,7.0,63,0.00,,,0.00,Wunderground v.1.15,2013-08-04 15:18:00,
2013-08-04 10:23:00,77.3,63.3,30.14,NE,51,1.0,6.0,62,0.00,,,0.00,Wunderground v.1.15,2013-08-04 15:23:00,
2013-08-04 10:28:00,77.4,63.4,30.14,East,100,2.0,6.0,62,0.00,,,0.00,Wunderground v.1.15,2013-08-04 15:28:00,
2013-08-04 10:33:00,77.7,63.6,30.14,SE,133,1.0,5.0,62,0.00,,,0.00,Wunderground v.1.15,2013-08-04 15:33:00,
2013-08-04 10:38:00,77.6,64.9,30.13,ENE,77,1.0,9.0,65,0.00,,,0.00,Wunderground v.1.15,2013-08-04 15:38:00,
2013-08-04 10:43:00,78.0,63.5,30.13,ENE,78,5.0,7.0,61,0.00,,,0.00,Wunderground v.1.15,2013-08-04 15:43:00,
2013-08-04 10:48:00,78.1,62.6,30.13,ESE,107,4.0,7.0,59,0.00,,,0.00,Wunderground v.1.15,2013-08-04 15:48:00,
2013-08-04 10:53:00,78.1,63.6,30.13,ESE,117,1.0,7.0,61,0.00,,,0.00,Wunderground v.1.15,2013-08-04 15:53:00,
2013-08-04 10:58:00,78.8,63.7,30.13,SE,138,3.0,7.0,60,0.00,,,0.00,Wunderground v.1.15,2013-08-04 15:58:00,
2013-08-04 11:03:00,78.9,62.9,30.13,East,101,2.0,5.0,58,0.00,,,0.00,Wunderground v.1.15,2013-08-04 16:03:00,
2013-08-04 11:08:00,79.2,64.1,30.13,SE,139,1.0,8.0,60,0.00,,,0.00,Wunderground v.1.15,2013-08-04 16:08:00,
2013-08-04 11:13:00,79.2,64.1,30.13,NE,46,5.0,5.0,60,0.00,,,0.00,Wunderground v.1.15,2013-08-04 16:13:00,
2013-08-04 11:18:00,78.9,63.8,30.13,East,99,2.0,7.0,60,0.00,,,0.00,Wunderground v.1.15,2013-08-04 16:18:00,
2013-08-04 11:23:00,79.3,64.7,30.13,ESE,117,2.0,5.0,61,0.00,,,0.00,Wunderground v.1.15,2013-08-04 16:23:00,
2013-08-04 11:28:00,79.3,64.7,30.13,NE,50,3.0,8.0,61,0.00,,,0.00,Wunderground v.1.15,2013-08-04 16:28:00,
2013-08-04 11:33:00,79.3,63.7,30.13,East,99,0.0,6.0,59,0.00,,,0.00,Wunderground v.1.15,2013-08-04 16:33:00,
2013-08-04 11:38:00,79.4,64.3,30.13,ESE,115,1.0,6.0,60,0.00,,,0.00,Wunderground v.1.15,2013-08-04 16:38:00,
2013-08-04 11:43:00,79.9,63.8,30.13,East,93,3.0,7.0,58,0.00,,,0.00,Wunderground v.1.15,2013-08-04 16:43:00,
2013-08-04 11:48:00,79.8,63.7,30.13,ESE,119,2.0,7.0,58,0.00,,,0.00,Wunderground v.1.15,2013-08-04 16:48:00,
2013-08-04 11:53:00,80.1,64.5,30.12,East,88,6.0,7.0,59,0.00,,,0.00,Wunderground v.1.15,2013-08-04 16:53:00,
2013-08-04 11:58:00,79.9,64.3,30.13,SE,132,0.0,7.0,59,0.00,,,0.00,Wunderground v.1.15,2013-08-04 16:58:00,
2013-08-04 12:03:00,80.3,65.1,30.13,ESE,108,2.0,4.0,60,0.00,,,0.00,Wunderground v.1.15,2013-08-04 17:03:00,
2013-08-04 12:08:00,80.7,64.1,30.13,SE,133,1.0,5.0,57,0.00,,,0.00,Wunderground v.1.15,2013-08-04 17:08:00,
2013-08-04 12:13:00,80.5,63.4,30.12,ENE,71,1.0,9.0,56,0.00,,,0.00,Wunderground v.1.15,2013-08-04 17:13:00,
2013-08-04 12:18:00,80.4,62.8,30.12,NE,54,7.0,9.0,55,0.00,,,0.00,Wunderground v.1.15,2013-08-04 17:18:00,
2013-08-04 12:23:00,80.7,64.1,30.12,ESE,108,3.0,6.0,57,0.00,,,0.00,Wunderground v.1.15,2013-08-04 17:23:00,
2013-08-04 12:28:00,81.0,64.3,30.12,East,96,1.0,6.0,57,0.00,,,0.00,Wunderground v.1.15,2013-08-04 17:28:00,
2013-08-04 12:33:00,81.2,64.5,30.12,SE,127,0.0,4.0,57,0.00,,,0.00,Wunderground v.1.15,2013-08-04 17:33:00,
2013-08-04 12:38:00,80.5,63.4,30.12,East,91,2.0,8.0,56,0.00,,,0.00,Wunderground v.1.15,2013-08-04 17:38:00,
2013-08-04 12:43:00,80.5,64.4,30.11,West,274,0.0,4.0,58,0.00,,,0.00,Wunderground v.1.15,2013-08-04 17:43:00,
2013-08-04 12:48:00,81.1,63.9,30.11,SE,143,2.0,6.0,56,0.00,,,0.00,Wunderground v.1.15,2013-08-04 17:48:00,
2013-08-04 12:53:00,80.9,64.2,30.11,East,101,1.0,6.0,57,0.00,,,0.00,Wunderground v.1.15,2013-08-04 17:53:00,
2013-08-04 12:58:00,80.9,64.7,30.11,NE,44,1.0,6.0,58,0.00,,,0.00,Wunderground v.1.15,2013-08-04 17:58:00,
2013-08-04 13:03:00,81.1,64.4,30.11,East,97,2.0,5.0,57,0.00,,,0.00,Wunderground v.1.15,2013-08-04 18:03:00,
2013-08-04 13:08:00,81.1,64.9,30.11,SE,134,1.0,6.0,58,0.00,,,0.00,Wunderground v.1.15,2013-08-04 18:08:00,
2013-08-04 13:13:00,81.0,64.8,30.10,NE,41,2.0,6.0,58,0.00,,,0.00,Wunderground v.1.15,2013-08-04 18:13:00,
2013-08-04 13:18:00,80.9,64.7,30.10,NE,44,3.0,6.0,58,0.00,,,0.00,Wunderground v.1.15,2013-08-04 18:18:00,
2013-08-04 13:23:00,81.1,63.4,30.10,NE,53,3.0,3.0,55,0.00,,,0.00,Wunderground v.1.15,2013-08-04 18:23:00,
2013-08-04 13:28:00,81.0,63.8,30.10,East,89,0.0,4.0,56,0.00,,,0.00,Wunderground v.1.15,2013-08-04 18:28:00,
2013-08-04 13:33:00,81.2,64.5,30.10,NE,54,3.0,3.0,57,0.00,,,0.00,Wunderground v.1.15,2013-08-04 18:33:00,
2013-08-04 13:39:00,80.4,63.8,30.10,NE,51,6.0,7.0,57,0.00,,,0.00,Wunderground v.1.15,2013-08-04 18:39:00,
2013-08-04 13:44:00,80.1,65.0,30.10,ENE,75,1.0,6.0,60,0.00,,,0.00,Wunderground v.1.15,2013-08-04 18:44:00,
2013-08-04 13:49:00,80.4,65.2,30.10,ESE,119,0.0,6.0,60,0.00,,,0.00,Wunderground v.1.15,2013-08-04 18:49:00,
2013-08-04 13:54:00,80.5,64.4,30.10,East,88,1.0,6.0,58,0.00,,,0.00,Wunderground v.1.15,2013-08-04 18:54:00,
2013-08-04 13:59:00,80.5,64.9,30.10,NE,51,4.0,6.0,59,0.00,,,0.00,Wunderground v.1.15,2013-08-04 18:59:00,
2013-08-04 14:04:00,80.3,65.1,30.10,NE,44,5.0,7.0,60,0.00,,,0.00,Wunderground v.1.15,2013-08-04 19:04:00,
2013-08-04 14:08:00,79.8,64.7,30.10,East,101,4.0,9.0,60,0.00,,,0.00,Wunderground v.1.15,2013-08-04 19:08:00,
2013-08-04 14:14:00,80.1,66.4,30.10,NE,51,3.0,4.0,63,0.00,,,0.00,Wunderground v.1.15,2013-08-04 19:14:00,
2013-08-04 14:18:00,80.5,65.8,30.10,ENE,77,1.0,4.0,61,0.00,,,0.00,Wunderground v.1.15,2013-08-04 19:18:00,
2013-08-04 14:23:00,80.5,65.3,30.10,NE,44,3.0,6.0,60,0.00,,,0.00,Wunderground v.1.15,2013-08-04 19:23:00,
2013-08-04 14:29:00,80.6,65.4,30.10,ENE,60,5.0,8.0,60,0.00,,,0.00,Wunderground v.1.15,2013-08-04 19:29:00,
2013-08-04 14:34:00,80.8,64.6,30.10,NE,48,8.0,8.0,58,0.00,,,0.00,Wunderground v.1.15,2013-08-04 19:34:00,
2013-08-04 14:38:00,80.9,64.2,30.10,NE,51,5.0,8.0,57,0.00,,,0.00,Wunderground v.1.15,2013-08-04 19:38:00,
2013-08-04 14:44:00,81.0,64.8,30.10,NW,323,3.0,7.0,58,0.00,,,0.00,Wunderground v.1.15,2013-08-04 19:44:00,
2013-08-04 14:48:00,80.8,64.1,30.10,NE,49,3.0,7.0,57,0.00,,,0.00,Wunderground v.1.15,2013-08-04 19:48:00,
2013-08-04 14:53:00,81.2,66.5,30.10,NNE,26,1.0,4.0,61,0.00,,,0.00,Wunderground v.1.15,2013-08-04 19:53:00,
2013-08-04 14:59:00,81.7,65.5,30.10,SE,124,1.0,9.0,58,0.00,,,0.00,Wunderground v.1.15,2013-08-04 19:59:00,
2013-08-04 15:04:00,81.9,64.7,30.10,NE,44,3.0,5.0,56,0.00,,,0.00,Wunderground v.1.15,2013-08-04 20:04:00,
2013-08-04 15:09:00,81.8,62.5,30.09,ENE,69,3.0,8.0,52,0.00,,,0.00,Wunderground v.1.15,2013-08-04 20:09:00,
2013-08-04 15:14:00,81.4,62.6,30.09,East,89,3.0,7.0,53,0.00,,,0.00,Wunderground v.1.15,2013-08-04 20:14:00,
2013-08-04 15:19:00,81.5,63.8,30.09,NNE,32,0.0,7.0,55,0.00,,,0.00,Wunderground v.1.15,2013-08-04 20:19:00,
2013-08-04 15:24:00,81.6,64.4,30.09,East,91,3.0,9.0,56,0.00,,,0.00,Wunderground v.1.15,2013-08-04 20:24:00,
2013-08-04 15:29:00,81.9,64.7,30.09,ENE,60,1.0,9.0,56,0.00,,,0.00,Wunderground v.1.15,2013-08-04 20:29:00,
2013-08-04 15:34:00,81.7,64.0,30.09,NE,42,4.0,9.0,55,0.00,,,0.00,Wunderground v.1.15,2013-08-04 20:34:00,
2013-08-04 15:39:00,81.7,65.0,30.09,SE,124,1.0,9.0,57,0.00,,,0.00,Wunderground v.1.15,2013-08-04 20:39:00,
2013-08-04 15:44:00,82.0,64.8,30.09,NE,50,4.0,5.0,56,0.00,,,0.00,Wunderground v.1.15,2013-08-04 20:44:00,
2013-08-04 15:49:00,82.0,65.3,30.08,SE,139,1.0,8.0,57,0.00,,,0.00,Wunderground v.1.15,2013-08-04 20:49:00,
2013-08-04 15:54:00,82.2,66.4,30.08,East,88,3.0,5.0,59,0.00,,,0.00,Wunderground v.1.15,2013-08-04 20:54:00,
2013-08-04 15:59:00,82.6,65.3,30.08,NE,34,2.0,6.0,56,0.00,,,0.00,Wunderground v.1.15,2013-08-04 20:59:00,
2013-08-04 16:04:00,82.2,64.4,30.08,NE,56,2.0,6.0,55,0.00,,,0.00,Wunderground v.1.15,2013-08-04 21:04:00,
2013-08-04 16:09:00,82.1,64.8,30.08,North,350,3.0,7.0,56,0.00,,,0.00,Wunderground v.1.15,2013-08-04 21:09:00,
2013-08-04 16:14:00,81.8,65.1,30.08,NE,56,2.0,5.0,57,0.00,,,0.00,Wunderground v.1.15,2013-08-04 21:14:00,
2013-08-04 16:19:00,81.3,64.6,30.08,East,92,3.0,6.0,57,0.00,,,0.00,Wunderground v.1.15,2013-08-04 21:19:00,
2013-08-04 16:24:00,80.8,64.1,30.08,East,90,4.0,6.0,57,0.00,,,0.00,Wunderground v.1.15,2013-08-04 21:24:00,
2013-08-04 16:29:00,80.8,64.1,30.08,NE,53,4.0,6.0,57,0.00,,,0.00,Wunderground v.1.15,2013-08-04 21:29:00,
2013-08-04 16:34:00,81.1,64.9,30.08,NE,44,4.0,9.0,58,0.00,,,0.00,Wunderground v.1.15,2013-08-04 21:34:00,
2013-08-04 16:39:00,81.4,64.7,30.08,NE,49,1.0,9.0,57,0.00,,,0.00,Wunderground v.1.15,2013-08-04 21:39:00,
2013-08-04 16:44:00,81.3,64.6,30.08,NE,46,5.0,7.0,57,0.00,,,0.00,Wunderground v.1.15,2013-08-04 21:44:00,
2013-08-04 16:49:00,81.5,65.3,30.08,East,92,5.0,8.0,58,0.00,,,0.00,Wunderground v.1.15,2013-08-04 21:49:00,
2013-08-04 16:54:00,81.3,64.6,30.08,NE,56,0.0,7.0,57,0.00,,,0.00,Wunderground v.1.15,2013-08-04 21:54:00,
2013-08-04 16:59:00,81.2,64.5,30.08,ESE,109,4.0,7.0,57,0.00,,,0.00,Wunderground v.1.15,2013-08-04 21:59:00,
2013-08-04 17:04:00,80.9,63.7,30.08,NE,48,7.0,7.0,56,0.00,,,0.00,Wunderground v.1.15,2013-08-04 22:04:00,
2013-08-04 17:09:00,80.7,64.1,30.08,NE,51,2.0,7.0,57,0.00,,,0.00,Wunderground v.1.15,2013-08-04 22:09:00,
2013-08-04 17:14:00,81.0,64.8,30.08,ESE,104,0.0,4.0,58,0.00,,,0.00,Wunderground v.1.15,2013-08-04 22:14:00,
2013-08-04 17:19:00,81.2,64.0,30.08,East,94,1.0,6.0,56,0.00,,,0.00,Wunderground v.1.15,2013-08-04 22:19:00,
2013-08-04 17:24:00,81.1,64.4,30.08,East,83,1.0,7.0,57,0.00,,,0.00,Wunderground v.1.15,2013-08-04 22:24:00,
2013-08-04 17:29:00,80.8,65.1,30.07,East,96,1.0,7.0,59,0.00,,,0.00,Wunderground v.1.15,2013-08-04 22:29:00,
2013-08-04 17:34:00,80.5,64.4,30.07,ESE,120,2.0,4.0,58,0.00,,,0.00,Wunderground v.1.15,2013-08-04 22:34:00,
2013-08-04 17:39:00,80.1,64.0,30.07,NE,49,3.0,7.0,58,0.00,,,0.00,Wunderground v.1.15,2013-08-04 22:39:00,
2013-08-04 17:44:00,80.0,64.9,30.08,NE,43,2.0,3.0,60,0.00,,,0.00,Wunderground v.1.15,2013-08-04 22:44:00,
2013-08-04 17:49:00,80.1,65.0,30.07,SE,131,1.0,4.0,60,0.00,,,0.00,Wunderground v.1.15,2013-08-04 22:49:00,
2013-08-04 17:54:00,80.0,64.4,30.07,NE,46,3.0,6.0,59,0.00,,,0.00,Wunderground v.1.15,2013-08-04 22:54:00,
2013-08-04 17:59:00,79.6,63.5,30.07,NE,56,4.0,6.0,58,0.00,,,0.00,Wunderground v.1.15,2013-08-04 22:59:00,
2013-08-04 18:04:00,79.2,64.6,30.07,East,89,0.0,3.0,61,0.00,,,0.00,Wunderground v.1.15,2013-08-04 23:04:00,
2013-08-04 18:09:00,79.0,64.9,30.07,ENE,61,2.0,5.0,62,0.00,,,0.00,Wunderground v.1.15,2013-08-04 23:09:00,
2013-08-04 18:14:00,78.8,65.1,30.07,SE,134,2.0,8.0,63,0.00,,,0.00,Wunderground v.1.15,2013-08-04 23:14:00,
2013-08-04 18:19:00,78.6,64.5,30.07,NE,51,6.0,8.0,62,0.00,,,0.00,Wunderground v.1.15,2013-08-04 23:19:00,
2013-08-04 18:24:00,78.1,64.5,30.08,East,94,2.0,4.0,63,0.00,,,0.00,Wunderground v.1.15,2013-08-04 23:24:00,
2013-08-04 18:29:00,77.7,64.1,30.08,SE,139,2.0,6.0,63,0.00,,,0.00,Wunderground v.1.15,2013-08-04 23:29:00,
2013-08-04 18:34:00,77.3,63.7,30.08,East,82,1.0,5.0,63,0.00,,,0.00,Wunderground v.1.15,2013-08-04 23:34:00,
2013-08-04 18:39:00,76.9,64.2,30.08,ENE,64,0.0,5.0,65,0.00,,,0.00,Wunderground v.1.15,2013-08-04 23:39:00,
2013-08-04 18:44:00,76.7,64.5,30.08,East,82,1.0,4.0,66,0.00,,,0.00,Wunderground v.1.15,2013-08-04 23:44:00,
2013-08-04 18:49:00,76.4,64.6,30.08,ENE,58,1.0,4.0,67,0.00,,,0.00,Wunderground v.1.15,2013-08-04 23:49:00,
2013-08-04 18:54:00,76.3,65.0,30.08,ENE,64,0.0,3.0,68,0.00,,,0.00,Wunderground v.1.15,2013-08-04 23:54:00,
2013-08-04 18:59:00,76.2,64.9,30.08,ENE,70,0.0,3.0,68,0.00,,,0.00,Wunderground v.1.15,2013-08-04 23:59:00,
2013-08-04 19:04:00,75.9,65.0,30.08,NE,51,2.0,4.0,69,0.00,,,0.00,Wunderground v.1.15,2013-08-05 00:04:00,
2013-08-04 19:09:00,75.5,64.6,30.08,East,84,1.0,4.0,69,0.00,,,0.00,Wunderground v.1.15,2013-08-05 00:09:00,
2013-08-04 19:14:00,75.2,64.7,30.08,East,96,1.0,3.0,70,0.00,,,0.00,Wunderground v.1.15,2013-08-05 00:14:00,
2013-08-04 19:19:00,75.0,64.5,30.08,ENE,75,0.0,4.0,70,0.00,,,0.00,Wunderground v.1.15,2013-08-05 00:19:00,
2013-08-04 19:24:00,74.8,64.4,30.08,East,93,0.0,2.0,70,0.00,,,0.00,Wunderground v.1.15,2013-08-05 00:24:00,
2013-08-04 19:29:00,74.5,64.5,30.08,NE,48,0.0,3.0,71,0.00,,,0.00,Wunderground v.1.15,2013-08-05 00:29:00,
2013-08-04 19:34:00,74.2,64.6,30.08,East,85,1.0,2.0,72,0.00,,,0.00,Wunderground v.1.15,2013-08-05 00:34:00,
2013-08-04 19:39:00,73.9,64.7,30.07,East,94,0.0,2.0,73,0.00,,,0.00,Wunderground v.1.15,2013-08-05 00:39:00,
2013-08-04 19:44:00,73.6,64.4,30.08,ENE,73,0.0,1.0,73,0.00,,,0.00,Wunderground v.1.15,2013-08-05 00:44:00,
2013-08-04 19:49:00,73.4,64.6,30.08,NE,53,0.0,2.0,74,0.00,,,0.00,Wunderground v.1.15,2013-08-05 00:49:00,
2013-08-04 19:54:00,73.0,64.6,30.08,NE,51,0.0,2.0,75,0.00,,,0.00,Wunderground v.1.15,2013-08-05 00:54:00,
2013-08-04 19:59:00,72.8,64.4,30.08,NE,51,0.0,2.0,75,0.00,,,0.00,Wunderground v.1.15,2013-08-05 00:59:00,
2013-08-04 20:04:00,72.6,64.6,30.08,ENE,57,0.0,2.0,76,0.00,,,0.00,Wunderground v.1.15,2013-08-05 01:04:00,
2013-08-04 20:09:00,72.4,64.8,30.08,ENE,57,0.0,2.0,77,0.00,,,0.00,Wunderground v.1.15,2013-08-05 01:09:00,
2013-08-04 20:14:00,72.1,64.5,30.07,East,101,0.0,1.0,77,0.00,,,0.00,Wunderground v.1.15,2013-08-05 01:14:00,
2013-08-04 20:19:00,71.9,64.7,30.07,ENE,65,0.0,2.0,78,0.00,,,0.00,Wunderground v.1.15,2013-08-05 01:19:00,
2013-08-04 20:24:00,71.8,64.6,30.07,ENE,61,0.0,3.0,78,0.00,,,0.00,Wunderground v.1.15,2013-08-05 01:24:00,
2013-08-04 20:29:00,71.5,64.6,30.07,ESE,102,0.0,3.0,79,0.00,,,0.00,Wunderground v.1.15,2013-08-05 01:29:00,
2013-08-04 20:34:00,71.3,64.4,30.07,ESE,105,0.0,2.0,79,0.00,,,0.00,Wunderground v.1.15,2013-08-05 01:34:00,
2013-08-04 20:39:00,71.2,64.4,30.08,ESE,105,0.0,2.0,79,0.00,,,0.00,Wunderground v.1.15,2013-08-05 01:39:00,
2013-08-04 20:44:00,71.1,64.6,30.08,ESE,106,0.0,0.0,80,0.00,,,0.00,Wunderground v.1.15,2013-08-05 01:44:00,
2013-08-04 20:49:00,70.8,64.3,30.08,ESE,105,0.0,0.0,80,0.00,,,0.00,Wunderground v.1.15,2013-08-05 01:49:00,
2013-08-04 20:54:00,70.5,64.0,30.08,ESE,108,0.0,1.0,80,0.00,,,0.00,Wunderground v.1.15,2013-08-05 01:54:00,
2013-08-04 20:59:00,70.5,63.7,30.08,ESE,105,0.0,0.0,79,0.00,,,0.00,Wunderground v.1.15,2013-08-05 01:59:00,
2013-08-04 21:05:00,70.5,63.3,30.08,ESE,103,0.0,2.0,78,0.00,,,0.00,Wunderground v.1.15,2013-08-05 02:05:00,
2013-08-04 21:10:00,70.8,63.6,30.09,ESE,102,1.0,1.0,78,0.00,,,0.00,Wunderground v.1.15,2013-08-05 02:10:00,
2013-08-04 21:15:00,70.9,63.7,30.09,ESE,112,0.0,2.0,78,0.00,,,0.00,Wunderground v.1.15,2013-08-05 02:15:00,
2013-08-04 21:20:00,70.9,63.7,30.08,ESE,113,1.0,1.0,78,0.00,,,0.00,Wunderground v.1.15,2013-08-05 02:20:00,
2013-08-04 21:25:00,70.9,63.7,30.08,ESE,115,0.0,1.0,78,0.00,,,0.00,Wunderground v.1.15,2013-08-05 02:25:00,
2013-08-04 21:29:00,70.8,63.6,30.08,ESE,112,0.0,0.0,78,0.00,,,0.00,Wunderground v.1.15,2013-08-05 02:29:00,
2013-08-04 21:34:00,70.8,64.0,30.08,ESE,113,0.0,1.0,79,0.00,,,0.00,Wunderground v.1.15,2013-08-05 02:34:00,
2013-08-04 21:40:00,70.7,63.9,30.09,ESE,119,0.0,0.0,79,0.00,,,0.00,Wunderground v.1.15,2013-08-05 02:40:00,
2013-08-04 21:45:00,70.7,63.9,30.09,ESE,103,1.0,1.0,79,0.00,,,0.00,Wunderground v.1.15,2013-08-05 02:45:00,
2013-08-04 21:50:00,70.5,63.7,30.09,ESE,111,0.0,0.0,79,0.00,,,0.00,Wunderground v.1.15,2013-08-05 02:50:00,
2013-08-04 21:55:00,70.4,63.9,30.08,ESE,113,0.0,1.0,80,0.00,,,0.00,Wunderground v.1.15,2013-08-05 02:55:00,
2013-08-04 21:59:00,70.3,63.8,30.08,ESE,109,0.0,0.0,80,0.00,,,0.00,Wunderground v.1.15,2013-08-05 02:59:00,
2013-08-04 22:04:00,70.1,64.0,30.08,ESE,103,0.0,2.0,81,0.00,,,0.00,Wunderground v.1.15,2013-08-05 03:04:00,
2013-08-04 22:10:00,70.0,63.9,30.08,SE,129,0.0,1.0,81,0.00,,,0.00,Wunderground v.1.15,2013-08-05 03:10:00,
2013-08-04 22:15:00,70.0,63.9,30.09,SE,129,0.0,1.0,81,0.00,,,0.00,Wunderground v.1.15,2013-08-05 03:15:00,
2013-08-04 22:20:00,70.0,63.9,30.08,SE,129,0.0,1.0,81,0.00,,,0.00,Wunderground v.1.15,2013-08-05 03:20:00,
2013-08-04 22:25:00,70.0,63.9,30.08,ESE,120,0.0,2.0,81,0.00,,,0.00,Wunderground v.1.15,2013-08-05 03:25:00,
2013-08-04 22:30:00,70.1,63.6,30.08,ESE,118,0.0,0.0,80,0.00,,,0.00,Wunderground v.1.15,2013-08-05 03:30:00,
2013-08-04 22:35:00,69.9,63.4,30.09,ESE,119,0.0,1.0,80,0.00,,,0.00,Wunderground v.1.15,2013-08-05 03:35:00,
2013-08-04 22:40:00,69.8,63.7,30.09,ESE,118,0.0,0.0,81,0.00,,,0.00,Wunderground v.1.15,2013-08-05 03:40:00,
2013-08-04 22:45:00,69.8,63.3,30.09,ESE,118,0.0,1.0,80,0.00,,,0.00,Wunderground v.1.15,2013-08-05 03:45:00,
2013-08-04 22:50:00,69.8,63.7,30.09,ESE,119,0.0,0.0,81,0.00,,,0.00,Wunderground v.1.15,2013-08-05 03:50:00,
2013-08-04 22:55:00,69.7,63.3,30.09,ESE,119,0.0,1.0,80,0.00,,,0.00,Wunderground v.1.15,2013-08-05 03:55:00,
2013-08-04 23:00:00,69.7,63.6,30.09,ESE,119,0.0,0.0,81,0.00,,,0.00,Wunderground v.1.15,2013-08-05 04:00:00,
2013-08-04 23:01:00,69.7,63.6,30.09,ESE,118,0.0,0.0,81,0.00,,,0.00,Wunderground v.1.15,2013-08-05 04:01:00,
2013-08-04 23:07:00,69.6,63.5,30.09,ESE,119,0.0,1.0,81,0.00,,,0.00,Wunderground v.1.15,2013-08-05 04:07:00,
2013-08-04 23:11:00,69.6,63.5,30.09,ESE,118,0.0,1.0,81,0.00,,,0.00,Wunderground v.1.15,2013-08-05 04:11:00,
2013-08-04 23:16:00,69.5,63.4,30.09,ESE,119,0.0,1.0,81,0.00,,,0.00,Wunderground v.1.15,2013-08-05 04:16:00,
2013-08-04 23:22:00,69.4,63.3,30.09,ESE,118,0.0,0.0,81,0.00,,,0.00,Wunderground v.1.15,2013-08-05 04:22:00,
2013-08-04 23:27:00,69.3,63.2,30.09,ESE,118,0.0,1.0,81,0.00,,,0.00,Wunderground v.1.15,2013-08-05 04:27:00,
2013-08-04 23:32:00,69.1,63.0,30.09,ESE,119,0.0,1.0,81,0.00,,,0.00,Wunderground v.1.15,2013-08-05 04:32:00,
2013-08-04 23:37:00,69.1,63.0,30.09,ESE,119,0.0,1.0,81,0.00,,,0.00,Wunderground v.1.15,2013-08-05 04:37:00,
2013-08-04 23:42:00,69.1,62.7,30.09,SE,141,0.0,1.0,80,0.00,,,0.00,Wunderground v.1.15,2013-08-05 04:42:00,
2013-08-04 23:47:00,69.2,62.4,30.09,SE,134,0.0,1.0,79,0.00,,,0.00,Wunderground v.1.15,2013-08-05 04:47:00,
2013-08-04 23:52:00,69.1,62.7,30.09,SE,134,0.0,0.0,80,0.00,,,0.00,Wunderground v.1.15,2013-08-05 04:52:00,
2013-08-04 23:57:00,68.9,62.8,30.09,SE,134,0.0,0.0,81,0.00,,,0.00,Wunderground v.1.15,2013-08-05 04:57:00,